map of PXM home
PXM - Airport
Location
City:  Puerto Escondido, Oaxaca, México
Name:Puerto Escondido International Airport
ICAO:MMPS
IATA:PXM

Details
Type:Airport (Aerodrome, Airfield)
Use:International (customs port of entry)
Latitude:15°52'37"N (15.876861)
Longitude:97°05'21"W (-97.089116)
Datum:WGS 1984
Elevation:294 ft (90 m)
Variation:3.91°E (WMM2015 magnetic declination)
-0.12° annual change
Runways:1
Longest:7546 × 148 ft (2300 × 45 m), paved

Time
Time Zone:UTC-6 (DST-5)
Local Time:

Weather
METAR:MMPS 142245Z 18003KT 13SM SCT015 SCT090 30/22 A2998 RMK 8/130 HZY

Related Locations
Nearby:
Farthest:NKW: 11519 mi / 18537 km
Diego Garcia, Chagos Archipelago, IO

Find:

   beyond  
but within

Other Information
Maps:
NOTAMs:
Links:
Sources:

  
  • flag of México
  • flag of Oaxaca
  

Sectional Chart

Flight Planning
at skyvector.com

Satellite Image

Google Maps Satellite view

 

Copyright © 2004-2018 Karl L. Swartz. All rights reserved.
The Great Circle Mapper name and logo are trademarks of the Great Circle Mapper.
All other trademarks mentioned herein belong to their respective owners.
Please see credits for attibutions and further copyright information.

  Follow gcmap on Facebook Follow gcmap on Twitter Follow gcmap on Google+ GCmap on LinkedIn

hCard Microformat

Geo Microformat